Hunters Hill, Australia
Current Conditions -  °F | °C
As of 11:00 PM on Tuesday 21 Oct 2014 (Local Time) from YMAY Reporting Station
Clear Clear  
Wind Chill: 64°   Ceiling: Unl
Heat Index: 64°   Visibility: 6mi
Dew Point: 52°   Wind: 5mph
Humidity: 64%   Direction: 110°ESE
Pressure: 30.24"   Gusts: NA
Location:  36.22°S, 147.53°E
Report Text: YMAY 211200Z AUTO 11004KT 080V150 9999 // NCD 18/11 Q1024
Loading
Personal Weather Stations






























Interactive Weather Map New forecast layout! Learn more

10-Day Weather Forecast

Advertisements
Track Severe Weather on mobile